sensor_id;sensor_type;location;lat;lon;timestamp;P1;durP1;ratioP1;P2;durP2;ratioP2
15049;SDS011;7622;42.724;23.250;2022-10-28T00:01:35;5.70;;;4.67;;
15049;SDS011;7622;42.724;23.250;2022-10-28T00:04:02;4.53;;;4.13;;
15049;SDS011;7622;42.724;23.250;2022-10-28T00:06:30;5.63;;;4.63;;
15049;SDS011;7622;42.724;23.250;2022-10-28T00:08:59;5.13;;;4.33;;
15049;SDS011;7622;42.724;23.250;2022-10-28T00:11:27;6.33;;;4.47;;
15049;SDS011;7622;42.724;23.250;2022-10-28T00:13:56;6.77;;;5.07;;
15049;SDS011;7622;42.724;23.250;2022-10-28T00:16:25;4.43;;;4.03;;
15049;SDS011;7622;42.724;23.250;2022-10-28T00:18:52;7.23;;;4.27;;
15049;SDS011;7622;42.724;23.250;2022-10-28T00:21:21;5.03;;;4.63;;
15049;SDS011;7622;42.724;23.250;2022-10-28T00:23:49;9.20;;;5.00;;
15049;SDS011;7622;42.724;23.250;2022-10-28T00:26:18;5.43;;;4.93;;
15049;SDS011;7622;42.724;23.250;2022-10-28T00:28:47;7.70;;;5.03;;
15049;SDS011;7622;42.724;23.250;2022-10-28T00:31:15;5.40;;;4.53;;
15049;SDS011;7622;42.724;23.250;2022-10-28T00:33:43;4.97;;;4.47;;
15049;SDS011;7622;42.724;23.250;2022-10-28T00:36:13;5.73;;;5.20;;
15049;SDS011;7622;42.724;23.250;2022-10-28T00:38:42;4.87;;;4.30;;
15049;SDS011;7622;42.724;23.250;2022-10-28T00:41:10;5.13;;;4.40;;
15049;SDS011;7622;42.724;23.250;2022-10-28T00:43:40;8.03;;;4.87;;
15049;SDS011;7622;42.724;23.250;2022-10-28T00:46:19;9.13;;;5.53;;
15049;SDS011;7622;42.724;23.250;2022-10-28T00:48:54;11.80;;;6.50;;
15049;SDS011;7622;42.724;23.250;2022-10-28T00:51:26;9.97;;;6.60;;
15049;SDS011;7622;42.724;23.250;2022-10-28T00:53:57;12.17;;;5.93;;
15049;SDS011;7622;42.724;23.250;2022-10-28T00:56:24;10.40;;;5.80;;
15049;SDS011;7622;42.724;23.250;2022-10-28T00:58:55;9.17;;;5.77;;
15049;SDS011;7622;42.724;23.250;2022-10-28T01:01:24;6.93;;;5.63;;
15049;SDS011;7622;42.724;23.250;2022-10-28T01:03:51;10.03;;;5.47;;
15049;SDS011;7622;42.724;23.250;2022-10-28T01:06:19;6.90;;;5.87;;
15049;SDS011;7622;42.724;23.250;2022-10-28T01:08:47;7.53;;;4.97;;
15049;SDS011;7622;42.724;23.250;2022-10-28T01:14:14;9.37;;;4.87;;
15049;SDS011;7622;42.724;23.250;2022-10-28T01:19:43;5.47;;;4.90;;
15049;SDS011;7622;42.724;23.250;2022-10-28T01:22:27;5.13;;;4.63;;
15049;SDS011;7622;42.724;23.250;2022-10-28T01:25:07;8.10;;;5.10;;
15049;SDS011;7622;42.724;23.250;2022-10-28T01:27:58;6.43;;;4.40;;
15049;SDS011;7622;42.724;23.250;2022-10-28T01:33:33;5.77;;;4.03;;
15049;SDS011;7622;42.724;23.250;2022-10-28T01:36:05;4.13;;;3.77;;
15049;SDS011;7622;42.724;23.250;2022-10-28T01:38:40;5.77;;;4.03;;
15049;SDS011;7622;42.724;23.250;2022-10-28T01:41:15;7.97;;;4.47;;
15049;SDS011;7622;42.724;23.250;2022-10-28T01:43:50;4.40;;;4.00;;
15049;SDS011;7622;42.724;23.250;2022-10-28T01:46:24;6.20;;;4.17;;
15049;SDS011;7622;42.724;23.250;2022-10-28T01:48:56;6.20;;;3.63;;
15049;SDS011;7622;42.724;23.250;2022-10-28T01:51:28;5.67;;;3.83;;
15049;SDS011;7622;42.724;23.250;2022-10-28T01:53:59;4.63;;;4.13;;
15049;SDS011;7622;42.724;23.250;2022-10-28T01:56:31;11.80;;;7.13;;
15049;SDS011;7622;42.724;23.250;2022-10-28T01:59:02;4.97;;;4.47;;
15049;SDS011;7622;42.724;23.250;2022-10-28T02:01:31;6.13;;;4.27;;
15049;SDS011;7622;42.724;23.250;2022-10-28T02:04:00;4.17;;;3.70;;
15049;SDS011;7622;42.724;23.250;2022-10-28T02:06:28;7.20;;;4.53;;
15049;SDS011;7622;42.724;23.250;2022-10-28T02:09:01;5.97;;;4.20;;
15049;SDS011;7622;42.724;23.250;2022-10-28T02:11:39;6.37;;;4.20;;
15049;SDS011;7622;42.724;23.250;2022-10-28T02:14:30;6.50;;;4.30;;
15049;SDS011;7622;42.724;23.250;2022-10-28T02:17:08;5.00;;;3.90;;
15049;SDS011;7622;42.724;23.250;2022-10-28T02:19:46;7.73;;;4.90;;
15049;SDS011;7622;42.724;23.250;2022-10-28T02:22:17;6.37;;;4.63;;
15049;SDS011;7622;42.724;23.250;2022-10-28T02:24:49;5.87;;;4.47;;
15049;SDS011;7622;42.724;23.250;2022-10-28T02:27:28;6.67;;;5.53;;
15049;SDS011;7622;42.724;23.250;2022-10-28T02:30:01;6.37;;;4.97;;
15049;SDS011;7622;42.724;23.250;2022-10-28T02:32:33;6.13;;;4.87;;
15049;SDS011;7622;42.724;23.250;2022-10-28T02:35:05;5.63;;;5.10;;
15049;SDS011;7622;42.724;23.250;2022-10-28T02:37:35;6.37;;;4.73;;
15049;SDS011;7622;42.724;23.250;2022-10-28T02:40:06;6.10;;;4.97;;
15049;SDS011;7622;42.724;23.250;2022-10-28T02:42:39;7.07;;;4.67;;
15049;SDS011;7622;42.724;23.250;2022-10-28T02:45:12;6.57;;;5.20;;
15049;SDS011;7622;42.724;23.250;2022-10-28T02:47:43;10.67;;;5.30;;
15049;SDS011;7622;42.724;23.250;2022-10-28T02:50:19;9.47;;;4.80;;
15049;SDS011;7622;42.724;23.250;2022-10-28T02:52:52;7.40;;;4.97;;
15049;SDS011;7622;42.724;23.250;2022-10-28T02:55:22;6.43;;;5.10;;
15049;SDS011;7622;42.724;23.250;2022-10-28T02:57:55;8.20;;;5.37;;
15049;SDS011;7622;42.724;23.250;2022-10-28T03:00:22;5.70;;;5.17;;
15049;SDS011;7622;42.724;23.250;2022-10-28T03:02:49;5.97;;;4.70;;
15049;SDS011;7622;42.724;23.250;2022-10-28T03:05:18;8.83;;;5.30;;
15049;SDS011;7622;42.724;23.250;2022-10-28T03:07:45;8.93;;;5.57;;
15049;SDS011;7622;42.724;23.250;2022-10-28T03:10:11;8.60;;;7.37;;
15049;SDS011;7622;42.724;23.250;2022-10-28T03:12:38;10.07;;;7.17;;
15049;SDS011;7622;42.724;23.250;2022-10-28T03:15:05;10.80;;;6.03;;
15049;SDS011;7622;42.724;23.250;2022-10-28T03:17:33;6.17;;;5.57;;
15049;SDS011;7622;42.724;23.250;2022-10-28T03:19:59;6.37;;;5.47;;
15049;SDS011;7622;42.724;23.250;2022-10-28T03:22:27;9.23;;;5.50;;
15049;SDS011;7622;42.724;23.250;2022-10-28T03:24:54;6.53;;;5.63;;
15049;SDS011;7622;42.724;23.250;2022-10-28T03:27:21;11.40;;;5.97;;
15049;SDS011;7622;42.724;23.250;2022-10-28T03:29:48;13.40;;;5.87;;
15049;SDS011;7622;42.724;23.250;2022-10-28T03:32:14;9.27;;;6.67;;
15049;SDS011;7622;42.724;23.250;2022-10-28T03:34:41;9.73;;;6.33;;
15049;SDS011;7622;42.724;23.250;2022-10-28T03:37:08;12.93;;;6.73;;
15049;SDS011;7622;42.724;23.250;2022-10-28T03:39:36;10.43;;;7.10;;
15049;SDS011;7622;42.724;23.250;2022-10-28T03:42:03;16.97;;;7.60;;
15049;SDS011;7622;42.724;23.250;2022-10-28T03:44:30;15.60;;;7.97;;
15049;SDS011;7622;42.724;23.250;2022-10-28T03:46:56;19.07;;;7.93;;
15049;SDS011;7622;42.724;23.250;2022-10-28T03:49:23;21.93;;;9.03;;
15049;SDS011;7622;42.724;23.250;2022-10-28T03:51:50;17.77;;;8.13;;
15049;SDS011;7622;42.724;23.250;2022-10-28T03:54:17;31.90;;;7.80;;
15049;SDS011;7622;42.724;23.250;2022-10-28T03:56:45;15.10;;;7.33;;
15049;SDS011;7622;42.724;23.250;2022-10-28T03:59:11;17.07;;;7.27;;
15049;SDS011;7622;42.724;23.250;2022-10-28T04:01:38;13.87;;;7.77;;
15049;SDS011;7622;42.724;23.250;2022-10-28T04:04:05;18.77;;;7.60;;
15049;SDS011;7622;42.724;23.250;2022-10-28T04:06:32;13.70;;;7.10;;
15049;SDS011;7622;42.724;23.250;2022-10-28T04:08:58;17.93;;;7.33;;
15049;SDS011;7622;42.724;23.250;2022-10-28T04:11:25;14.70;;;8.00;;
15049;SDS011;7622;42.724;23.250;2022-10-28T04:13:53;16.73;;;7.07;;
15049;SDS011;7622;42.724;23.250;2022-10-28T04:16:20;18.93;;;7.10;;
15049;SDS011;7622;42.724;23.250;2022-10-28T04:18:47;15.60;;;7.10;;
15049;SDS011;7622;42.724;23.250;2022-10-28T04:21:14;20.47;;;7.30;;
15049;SDS011;7622;42.724;23.250;2022-10-28T04:23:40;11.50;;;6.80;;
15049;SDS011;7622;42.724;23.250;2022-10-28T04:26:07;17.13;;;7.40;;
15049;SDS011;7622;42.724;23.250;2022-10-28T04:28:34;9.70;;;6.80;;
15049;SDS011;7622;42.724;23.250;2022-10-28T04:31:02;15.60;;;6.73;;
15049;SDS011;7622;42.724;23.250;2022-10-28T04:33:29;18.23;;;6.57;;
15049;SDS011;7622;42.724;23.250;2022-10-28T04:35:56;15.27;;;6.87;;
15049;SDS011;7622;42.724;23.250;2022-10-28T04:38:22;9.80;;;6.70;;
15049;SDS011;7622;42.724;23.250;2022-10-28T04:40:49;10.07;;;7.07;;
15049;SDS011;7622;42.724;23.250;2022-10-28T04:43:16;12.27;;;8.13;;
15049;SDS011;7622;42.724;23.250;2022-10-28T04:45:43;17.50;;;8.07;;
15049;SDS011;7622;42.724;23.250;2022-10-28T04:48:12;14.00;;;7.73;;
15049;SDS011;7622;42.724;23.250;2022-10-28T04:50:39;23.53;;;8.90;;
15049;SDS011;7622;42.724;23.250;2022-10-28T04:53:06;12.73;;;7.90;;
15049;SDS011;7622;42.724;23.250;2022-10-28T04:55:33;13.80;;;7.63;;
15049;SDS011;7622;42.724;23.250;2022-10-28T04:57:59;20.80;;;12.43;;
15049;SDS011;7622;42.724;23.250;2022-10-28T05:00:26;10.87;;;8.40;;
15049;SDS011;7622;42.724;23.250;2022-10-28T05:02:54;11.70;;;7.23;;
15049;SDS011;7622;42.724;23.250;2022-10-28T05:05:23;12.70;;;7.30;;
15049;SDS011;7622;42.724;23.250;2022-10-28T05:07:49;13.93;;;6.97;;
15049;SDS011;7622;42.724;23.250;2022-10-28T05:10:16;12.40;;;7.07;;
15049;SDS011;7622;42.724;23.250;2022-10-28T05:12:43;16.30;;;8.17;;
15049;SDS011;7622;42.724;23.250;2022-10-28T05:15:10;10.70;;;7.33;;
15049;SDS011;7622;42.724;23.250;2022-10-28T05:17:38;28.43;;;8.63;;
15049;SDS011;7622;42.724;23.250;2022-10-28T05:20:06;22.10;;;8.27;;
15049;SDS011;7622;42.724;23.250;2022-10-28T05:22:35;20.97;;;9.37;;
15049;SDS011;7622;42.724;23.250;2022-10-28T05:25:02;24.53;;;10.03;;
15049;SDS011;7622;42.724;23.250;2022-10-28T05:27:30;21.00;;;10.67;;
15049;SDS011;7622;42.724;23.250;2022-10-28T05:29:57;24.33;;;11.77;;
15049;SDS011;7622;42.724;23.250;2022-10-28T05:32:24;33.33;;;11.47;;
15049;SDS011;7622;42.724;23.250;2022-10-28T05:34:51;24.93;;;10.30;;
15049;SDS011;7622;42.724;23.250;2022-10-28T05:37:17;27.93;;;10.23;;
15049;SDS011;7622;42.724;23.250;2022-10-28T05:39:45;21.30;;;10.03;;
15049;SDS011;7622;42.724;23.250;2022-10-28T05:42:12;27.10;;;10.90;;
15049;SDS011;7622;42.724;23.250;2022-10-28T05:44:39;19.73;;;9.53;;
15049;SDS011;7622;42.724;23.250;2022-10-28T05:47:06;24.17;;;9.60;;
15049;SDS011;7622;42.724;23.250;2022-10-28T05:49:32;69.17;;;10.77;;
15049;SDS011;7622;42.724;23.250;2022-10-28T05:51:59;20.40;;;10.03;;
15049;SDS011;7622;42.724;23.250;2022-10-28T05:54:26;28.87;;;8.73;;
15049;SDS011;7622;42.724;23.250;2022-10-28T05:56:54;16.70;;;9.17;;
15049;SDS011;7622;42.724;23.250;2022-10-28T05:59:21;19.40;;;8.50;;
15049;SDS011;7622;42.724;23.250;2022-10-28T06:01:47;21.47;;;9.97;;
15049;SDS011;7622;42.724;23.250;2022-10-28T06:04:14;39.97;;;12.67;;
15049;SDS011;7622;42.724;23.250;2022-10-28T06:06:41;29.83;;;11.20;;
15049;SDS011;7622;42.724;23.250;2022-10-28T06:09:08;22.13;;;9.90;;
15049;SDS011;7622;42.724;23.250;2022-10-28T06:11:35;21.70;;;10.63;;
15049;SDS011;7622;42.724;23.250;2022-10-28T06:14:03;23.13;;;8.70;;
15049;SDS011;7622;42.724;23.250;2022-10-28T06:16:30;22.80;;;9.53;;
15049;SDS011;7622;42.724;23.250;2022-10-28T06:18:56;21.77;;;9.80;;
15049;SDS011;7622;42.724;23.250;2022-10-28T06:21:23;31.03;;;10.00;;
15049;SDS011;7622;42.724;23.250;2022-10-28T06:23:50;29.20;;;10.40;;
15049;SDS011;7622;42.724;23.250;2022-10-28T06:26:17;18.53;;;10.00;;
15049;SDS011;7622;42.724;23.250;2022-10-28T06:28:45;29.07;;;11.80;;
15049;SDS011;7622;42.724;23.250;2022-10-28T06:31:14;28.30;;;11.30;;
15049;SDS011;7622;42.724;23.250;2022-10-28T06:33:40;23.20;;;11.47;;
15049;SDS011;7622;42.724;23.250;2022-10-28T06:36:07;47.97;;;17.07;;
15049;SDS011;7622;42.724;23.250;2022-10-28T06:38:35;32.00;;;13.90;;
15049;SDS011;7622;42.724;23.250;2022-10-28T06:41:01;27.40;;;12.90;;
15049;SDS011;7622;42.724;23.250;2022-10-28T06:43:28;24.77;;;12.67;;
15049;SDS011;7622;42.724;23.250;2022-10-28T06:45:55;33.57;;;12.00;;
15049;SDS011;7622;42.724;23.250;2022-10-28T06:48:23;30.33;;;11.63;;
15049;SDS011;7622;42.724;23.250;2022-10-28T06:50:53;26.17;;;11.50;;
15049;SDS011;7622;42.724;23.250;2022-10-28T06:53:21;26.53;;;10.20;;
15049;SDS011;7622;42.724;23.250;2022-10-28T06:55:50;18.27;;;9.97;;
15049;SDS011;7622;42.724;23.250;2022-10-28T06:58:18;18.30;;;9.93;;
15049;SDS011;7622;42.724;23.250;2022-10-28T07:00:45;15.90;;;8.90;;
15049;SDS011;7622;42.724;23.250;2022-10-28T07:03:11;22.67;;;10.00;;
15049;SDS011;7622;42.724;23.250;2022-10-28T07:05:40;14.07;;;8.77;;
15049;SDS011;7622;42.724;23.250;2022-10-28T07:08:06;15.70;;;8.63;;
15049;SDS011;7622;42.724;23.250;2022-10-28T07:10:33;17.87;;;9.37;;
15049;SDS011;7622;42.724;23.250;2022-10-28T07:13:00;19.60;;;9.70;;
15049;SDS011;7622;42.724;23.250;2022-10-28T07:15:27;17.73;;;8.77;;
15049;SDS011;7622;42.724;23.250;2022-10-28T07:17:54;17.03;;;9.23;;
15049;SDS011;7622;42.724;23.250;2022-10-28T07:20:22;12.93;;;8.60;;
15049;SDS011;7622;42.724;23.250;2022-10-28T07:22:55;14.97;;;8.80;;
15049;SDS011;7622;42.724;23.250;2022-10-28T07:25:22;17.83;;;9.23;;
15049;SDS011;7622;42.724;23.250;2022-10-28T07:27:48;14.57;;;9.00;;
15049;SDS011;7622;42.724;23.250;2022-10-28T07:30:15;18.50;;;8.70;;
15049;SDS011;7622;42.724;23.250;2022-10-28T07:32:42;16.80;;;9.30;;
15049;SDS011;7622;42.724;23.250;2022-10-28T07:35:09;15.20;;;8.47;;
15049;SDS011;7622;42.724;23.250;2022-10-28T07:37:37;12.17;;;8.13;;
15049;SDS011;7622;42.724;23.250;2022-10-28T07:40:06;15.23;;;9.30;;
15049;SDS011;7622;42.724;23.250;2022-10-28T07:42:33;15.93;;;8.40;;
15049;SDS011;7622;42.724;23.250;2022-10-28T07:45:00;15.07;;;8.87;;
15049;SDS011;7622;42.724;23.250;2022-10-28T07:47:27;15.03;;;9.20;;
15049;SDS011;7622;42.724;23.250;2022-10-28T07:49:53;19.03;;;8.13;;
15049;SDS011;7622;42.724;23.250;2022-10-28T07:52:20;12.63;;;8.00;;
15049;SDS011;7622;42.724;23.250;2022-10-28T07:54:47;15.23;;;9.32;;
15049;SDS011;7622;42.724;23.250;2022-10-28T07:57:15;13.60;;;7.63;;
15049;SDS011;7622;42.724;23.250;2022-10-28T07:59:42;15.23;;;8.50;;
15049;SDS011;7622;42.724;23.250;2022-10-28T08:02:09;11.03;;;8.63;;
15049;SDS011;7622;42.724;23.250;2022-10-28T08:04:42;16.80;;;8.40;;
15049;SDS011;7622;42.724;23.250;2022-10-28T08:07:09;12.27;;;7.90;;
15049;SDS011;7622;42.724;23.250;2022-10-28T08:09:35;17.43;;;8.07;;
15049;SDS011;7622;42.724;23.250;2022-10-28T08:12:02;17.33;;;8.80;;
15049;SDS011;7622;42.724;23.250;2022-10-28T08:14:31;11.20;;;7.30;;
15049;SDS011;7622;42.724;23.250;2022-10-28T08:16:58;9.50;;;6.87;;
15049;SDS011;7622;42.724;23.250;2022-10-28T08:19:25;10.50;;;7.47;;
15049;SDS011;7622;42.724;23.250;2022-10-28T08:21:51;11.70;;;6.93;;
15049;SDS011;7622;42.724;23.250;2022-10-28T08:24:18;10.30;;;6.97;;
15049;SDS011;7622;42.724;23.250;2022-10-28T08:26:45;12.77;;;7.90;;
15049;SDS011;7622;42.724;23.250;2022-10-28T08:29:11;15.83;;;7.17;;
15049;SDS011;7622;42.724;23.250;2022-10-28T08:31:40;15.27;;;7.80;;
15049;SDS011;7622;42.724;23.250;2022-10-28T08:34:07;11.43;;;8.10;;
15049;SDS011;7622;42.724;23.250;2022-10-28T08:36:33;11.80;;;8.40;;
15049;SDS011;7622;42.724;23.250;2022-10-28T08:39:00;17.50;;;9.67;;
15049;SDS011;7622;42.724;23.250;2022-10-28T08:41:28;13.13;;;8.87;;
15049;SDS011;7622;42.724;23.250;2022-10-28T08:44:14;17.40;;;9.90;;
15049;SDS011;7622;42.724;23.250;2022-10-28T08:47:11;14.53;;;9.27;;
15049;SDS011;7622;42.724;23.250;2022-10-28T08:49:47;15.07;;;9.30;;
15049;SDS011;7622;42.724;23.250;2022-10-28T08:52:20;14.57;;;10.43;;
15049;SDS011;7622;42.724;23.250;2022-10-28T08:54:53;15.77;;;10.17;;
15049;SDS011;7622;42.724;23.250;2022-10-28T08:57:33;11.03;;;9.63;;
15049;SDS011;7622;42.724;23.250;2022-10-28T09:00:05;17.40;;;10.20;;
15049;SDS011;7622;42.724;23.250;2022-10-28T09:02:39;18.73;;;9.97;;
15049;SDS011;7622;42.724;23.250;2022-10-28T09:05:16;18.97;;;10.40;;
15049;SDS011;7622;42.724;23.250;2022-10-28T09:07:46;16.93;;;10.63;;
15049;SDS011;7622;42.724;23.250;2022-10-28T09:10:13;17.93;;;10.73;;
15049;SDS011;7622;42.724;23.250;2022-10-28T09:12:43;18.57;;;12.37;;
15049;SDS011;7622;42.724;23.250;2022-10-28T09:15:28;20.07;;;10.10;;
15049;SDS011;7622;42.724;23.250;2022-10-28T09:18:03;15.77;;;11.00;;
15049;SDS011;7622;42.724;23.250;2022-10-28T09:20:43;18.40;;;9.70;;
15049;SDS011;7622;42.724;23.250;2022-10-28T09:23:19;17.50;;;10.40;;
15049;SDS011;7622;42.724;23.250;2022-10-28T09:25:52;14.77;;;10.63;;
15049;SDS011;7622;42.724;23.250;2022-10-28T09:28:33;21.13;;;10.70;;
15049;SDS011;7622;42.724;23.250;2022-10-28T09:31:12;16.90;;;9.60;;
15049;SDS011;7622;42.724;23.250;2022-10-28T09:33:49;13.33;;;9.00;;
15049;SDS011;7622;42.724;23.250;2022-10-28T09:36:27;12.70;;;8.67;;
15049;SDS011;7622;42.724;23.250;2022-10-28T09:38:58;12.70;;;7.87;;
15049;SDS011;7622;42.724;23.250;2022-10-28T09:41:27;13.77;;;8.60;;
15049;SDS011;7622;42.724;23.250;2022-10-28T09:43:58;20.67;;;9.70;;
15049;SDS011;7622;42.724;23.250;2022-10-28T09:46:32;12.87;;;8.40;;
15049;SDS011;7622;42.724;23.250;2022-10-28T09:49:02;13.47;;;7.47;;
15049;SDS011;7622;42.724;23.250;2022-10-28T09:51:38;11.77;;;8.00;;
15049;SDS011;7622;42.724;23.250;2022-10-28T09:54:13;12.97;;;7.70;;
15049;SDS011;7622;42.724;23.250;2022-10-28T09:56:40;9.43;;;7.60;;
15049;SDS011;7622;42.724;23.250;2022-10-28T09:59:09;50.07;;;9.43;;
15049;SDS011;7622;42.724;23.250;2022-10-28T10:01:39;11.67;;;6.60;;
15049;SDS011;7622;42.724;23.250;2022-10-28T10:04:14;9.27;;;6.50;;
15049;SDS011;7622;42.724;23.250;2022-10-28T10:06:44;14.17;;;7.50;;
15049;SDS011;7622;42.724;23.250;2022-10-28T10:09:16;9.17;;;6.10;;
15049;SDS011;7622;42.724;23.250;2022-10-28T10:11:46;12.50;;;6.00;;
15049;SDS011;7622;42.724;23.250;2022-10-28T10:14:17;7.73;;;5.70;;
15049;SDS011;7622;42.724;23.250;2022-10-28T10:16:48;6.20;;;5.60;;
15049;SDS011;7622;42.724;23.250;2022-10-28T10:19:20;9.30;;;5.77;;
15049;SDS011;7622;42.724;23.250;2022-10-28T10:21:47;16.27;;;5.87;;
15049;SDS011;7622;42.724;23.250;2022-10-28T10:24:22;7.70;;;5.70;;
15049;SDS011;7622;42.724;23.250;2022-10-28T10:26:51;5.53;;;4.80;;
15049;SDS011;7622;42.724;23.250;2022-10-28T10:29:19;6.53;;;4.80;;
15049;SDS011;7622;42.724;23.250;2022-10-28T10:31:47;14.03;;;4.83;;
15049;SDS011;7622;42.724;23.250;2022-10-28T10:34:29;7.43;;;4.57;;
15049;SDS011;7622;42.724;23.250;2022-10-28T10:36:56;8.27;;;4.90;;
15049;SDS011;7622;42.724;23.250;2022-10-28T10:39:26;9.93;;;5.00;;
15049;SDS011;7622;42.724;23.250;2022-10-28T10:41:58;7.70;;;4.43;;
15049;SDS011;7622;42.724;23.250;2022-10-28T10:44:32;6.47;;;3.90;;
15049;SDS011;7622;42.724;23.250;2022-10-28T10:47:14;8.17;;;4.77;;
15049;SDS011;7622;42.724;23.250;2022-10-28T10:49:45;9.63;;;4.50;;
15049;SDS011;7622;42.724;23.250;2022-10-28T10:52:17;6.60;;;3.83;;
15049;SDS011;7622;42.724;23.250;2022-10-28T10:54:55;6.03;;;3.87;;
15049;SDS011;7622;42.724;23.250;2022-10-28T10:57:24;8.20;;;3.20;;
15049;SDS011;7622;42.724;23.250;2022-10-28T10:59:52;5.03;;;2.77;;
15049;SDS011;7622;42.724;23.250;2022-10-28T11:02:21;8.97;;;3.30;;
15049;SDS011;7622;42.724;23.250;2022-10-28T11:04:52;4.30;;;2.90;;
15049;SDS011;7622;42.724;23.250;2022-10-28T11:07:23;9.63;;;3.40;;
15049;SDS011;7622;42.724;23.250;2022-10-28T11:09:52;5.93;;;3.70;;
15049;SDS011;7622;42.724;23.250;2022-10-28T11:12:27;4.60;;;3.10;;
15049;SDS011;7622;42.724;23.250;2022-10-28T11:14:56;2.57;;;2.40;;
15049;SDS011;7622;42.724;23.250;2022-10-28T11:17:26;3.40;;;2.80;;
15049;SDS011;7622;42.724;23.250;2022-10-28T11:19:56;7.40;;;3.10;;
15049;SDS011;7622;42.724;23.250;2022-10-28T11:22:30;2.80;;;2.30;;
15049;SDS011;7622;42.724;23.250;2022-10-28T11:28:07;4.90;;;3.00;;
15049;SDS011;7622;42.724;23.250;2022-10-28T11:30:47;3.77;;;2.83;;
15049;SDS011;7622;42.724;23.250;2022-10-28T11:33:24;2.67;;;2.40;;
15049;SDS011;7622;42.724;23.250;2022-10-28T11:36:05;3.07;;;2.30;;
15049;SDS011;7622;42.724;23.250;2022-10-28T11:41:49;17.20;;;3.57;;
15049;SDS011;7622;42.724;23.250;2022-10-28T11:44:30;3.00;;;2.73;;
15049;SDS011;7622;42.724;23.250;2022-10-28T11:47:11;4.07;;;2.60;;
15049;SDS011;7622;42.724;23.250;2022-10-28T11:52:51;4.57;;;2.40;;
15049;SDS011;7622;42.724;23.250;2022-10-28T11:55:41;3.37;;;2.47;;
15049;SDS011;7622;42.724;23.250;2022-10-28T11:58:15;2.33;;;2.13;;
15049;SDS011;7622;42.724;23.250;2022-10-28T12:00:53;5.87;;;2.60;;
15049;SDS011;7622;42.724;23.250;2022-10-28T12:03:35;5.33;;;2.50;;
15049;SDS011;7622;42.724;23.250;2022-10-28T12:06:14;2.60;;;2.40;;
15049;SDS011;7622;42.724;23.250;2022-10-28T12:08:50;3.83;;;2.63;;
15049;SDS011;7622;42.724;23.250;2022-10-28T12:11:32;2.73;;;2.53;;
15049;SDS011;7622;42.724;23.250;2022-10-28T12:14:09;3.30;;;2.77;;
15049;SDS011;7622;42.724;23.250;2022-10-28T12:16:42;7.13;;;3.33;;
15049;SDS011;7622;42.724;23.250;2022-10-28T12:19:16;10.23;;;3.23;;
15049;SDS011;7622;42.724;23.250;2022-10-28T12:21:52;6.57;;;3.93;;
15049;SDS011;7622;42.724;23.250;2022-10-28T12:24:25;4.77;;;3.07;;
15049;SDS011;7622;42.724;23.250;2022-10-28T12:26:54;5.53;;;2.83;;
15049;SDS011;7622;42.724;23.250;2022-10-28T12:29:24;4.40;;;3.00;;
15049;SDS011;7622;42.724;23.250;2022-10-28T12:31:54;5.40;;;3.23;;
15049;SDS011;7622;42.724;23.250;2022-10-28T12:34:27;4.40;;;2.90;;
15049;SDS011;7622;42.724;23.250;2022-10-28T12:36:59;4.13;;;2.60;;
15049;SDS011;7622;42.724;23.250;2022-10-28T12:39:33;4.73;;;3.03;;
15049;SDS011;7622;42.724;23.250;2022-10-28T12:42:05;3.03;;;2.67;;
15049;SDS011;7622;42.724;23.250;2022-10-28T12:44:37;2.73;;;2.30;;
15049;SDS011;7622;42.724;23.250;2022-10-28T12:47:13;3.10;;;2.80;;
15049;SDS011;7622;42.724;23.250;2022-10-28T12:49:46;2.67;;;2.37;;
15049;SDS011;7622;42.724;23.250;2022-10-28T12:52:30;5.90;;;3.17;;
15049;SDS011;7622;42.724;23.250;2022-10-28T12:55:06;3.10;;;2.83;;
15049;SDS011;7622;42.724;23.250;2022-10-28T12:57:44;3.47;;;2.53;;
15049;SDS011;7622;42.724;23.250;2022-10-28T13:00:16;4.57;;;2.60;;
15049;SDS011;7622;42.724;23.250;2022-10-28T13:02:47;2.90;;;2.27;;
15049;SDS011;7622;42.724;23.250;2022-10-28T13:05:20;3.43;;;2.53;;
15049;SDS011;7622;42.724;23.250;2022-10-28T13:07:54;3.53;;;2.57;;
15049;SDS011;7622;42.724;23.250;2022-10-28T13:10:36;3.73;;;2.93;;
15049;SDS011;7622;42.724;23.250;2022-10-28T13:13:23;3.30;;;2.50;;
15049;SDS011;7622;42.724;23.250;2022-10-28T13:16:09;6.00;;;2.57;;
15049;SDS011;7622;42.724;23.250;2022-10-28T13:18:56;7.33;;;3.73;;
15049;SDS011;7622;42.724;23.250;2022-10-28T13:21:51;7.07;;;2.83;;
15049;SDS011;7622;42.724;23.250;2022-10-28T13:24:38;4.07;;;3.13;;
15049;SDS011;7622;42.724;23.250;2022-10-28T13:27:12;2.90;;;2.70;;
15049;SDS011;7622;42.724;23.250;2022-10-28T13:29:40;3.47;;;3.13;;
15049;SDS011;7622;42.724;23.250;2022-10-28T13:32:22;3.23;;;3.00;;
15049;SDS011;7622;42.724;23.250;2022-10-28T13:34:55;8.07;;;2.47;;
15049;SDS011;7622;42.724;23.250;2022-10-28T13:37:30;5.72;;;2.83;;
15049;SDS011;7622;42.724;23.250;2022-10-28T13:40:00;3.70;;;2.63;;
15049;SDS011;7622;42.724;23.250;2022-10-28T13:42:41;3.57;;;2.53;;
15049;SDS011;7622;42.724;23.250;2022-10-28T13:53:58;3.57;;;2.57;;
15049;SDS011;7622;42.724;23.250;2022-10-28T13:56:40;3.60;;;2.60;;
15049;SDS011;7622;42.724;23.250;2022-10-28T13:59:22;2.97;;;2.57;;
15049;SDS011;7622;42.724;23.250;2022-10-28T14:01:55;2.97;;;2.60;;
15049;SDS011;7622;42.724;23.250;2022-10-28T14:04:28;7.10;;;2.80;;
15049;SDS011;7622;42.724;23.250;2022-10-28T14:07:05;2.40;;;2.20;;
15049;SDS011;7622;42.724;23.250;2022-10-28T14:09:45;4.53;;;2.47;;
15049;SDS011;7622;42.724;23.250;2022-10-28T14:15:16;3.47;;;2.33;;
15049;SDS011;7622;42.724;23.250;2022-10-28T14:17:46;2.60;;;2.40;;
15049;SDS011;7622;42.724;23.250;2022-10-28T14:20:19;3.67;;;2.90;;
15049;SDS011;7622;42.724;23.250;2022-10-28T14:22:52;3.37;;;2.90;;
15049;SDS011;7622;42.724;23.250;2022-10-28T14:31:36;2.97;;;2.77;;
15049;SDS011;7622;42.724;23.250;2022-10-28T14:37:26;4.23;;;2.20;;
15049;SDS011;7622;42.724;23.250;2022-10-28T14:40:18;4.37;;;2.97;;
15049;SDS011;7622;42.724;23.250;2022-10-28T14:46:00;2.73;;;2.53;;
15049;SDS011;7622;42.724;23.250;2022-10-28T14:48:40;5.60;;;2.70;;
15049;SDS011;7622;42.724;23.250;2022-10-28T14:51:12;6.47;;;2.87;;
15049;SDS011;7622;42.724;23.250;2022-10-28T14:53:42;2.93;;;2.73;;
15049;SDS011;7622;42.724;23.250;2022-10-28T14:56:11;12.13;;;3.60;;
15049;SDS011;7622;42.724;23.250;2022-10-28T14:58:45;6.30;;;2.70;;
15049;SDS011;7622;42.724;23.250;2022-10-28T15:01:25;5.50;;;2.47;;
15049;SDS011;7622;42.724;23.250;2022-10-28T15:03:55;5.00;;;3.00;;
15049;SDS011;7622;42.724;23.250;2022-10-28T15:06:27;3.33;;;2.70;;
15049;SDS011;7622;42.724;23.250;2022-10-28T15:09:01;2.87;;;2.67;;
15049;SDS011;7622;42.724;23.250;2022-10-28T15:11:31;5.20;;;3.40;;
15049;SDS011;7622;42.724;23.250;2022-10-28T15:13:59;5.53;;;3.13;;
15049;SDS011;7622;42.724;23.250;2022-10-28T15:16:44;5.63;;;2.50;;
15049;SDS011;7622;42.724;23.250;2022-10-28T15:19:13;5.10;;;2.80;;
15049;SDS011;7622;42.724;23.250;2022-10-28T15:21:43;6.53;;;4.00;;
15049;SDS011;7622;42.724;23.250;2022-10-28T15:24:24;7.70;;;3.80;;
15049;SDS011;7622;42.724;23.250;2022-10-28T15:26:51;4.50;;;3.50;;
15049;SDS011;7622;42.724;23.250;2022-10-28T15:29:19;6.97;;;3.73;;
15049;SDS011;7622;42.724;23.250;2022-10-28T15:32:05;11.60;;;7.00;;
15049;SDS011;7622;42.724;23.250;2022-10-28T15:34:37;6.60;;;4.77;;
15049;SDS011;7622;42.724;23.250;2022-10-28T15:37:04;10.10;;;5.03;;
15049;SDS011;7622;42.724;23.250;2022-10-28T15:39:32;10.03;;;5.17;;
15049;SDS011;7622;42.724;23.250;2022-10-28T15:41:59;7.47;;;4.77;;
15049;SDS011;7622;42.724;23.250;2022-10-28T15:44:30;9.00;;;6.80;;
15049;SDS011;7622;42.724;23.250;2022-10-28T15:47:01;42.07;;;27.43;;